Time,TemperatureF,DewpointF,PressureIn,WindDirection,WindDirectionDegrees,WindSpeedMPH,WindSpeedGustMPH,Humidity,HourlyPrecipIn,Conditions,Clouds,dailyrainin,SolarRadiationWatts/m^2,SoftwareType,DateUTC
2013-09-29 00:42:00,50.0,27.0,30.23,East,90,5.0,7.0,41,-99.99,,,-99.99,0.000000,,2013-09-29 06:42:00,
2013-09-29 02:12:00,52.0,29.0,30.22,West,275,4.0,4.0,41,-99.99,,,-99.99,0.000000,,2013-09-29 08:12:00,
2013-09-29 02:22:00,53.0,27.0,30.22,WNW,284,3.0,4.0,36,-99.99,,,-99.99,0.000000,,2013-09-29 08:22:00,
2013-09-29 02:42:00,50.0,32.0,30.22,WNW,289,4.0,6.0,50,-99.99,,,-99.99,0.000000,,2013-09-29 08:42:00,
2013-09-29 03:11:00,50.0,28.0,30.21,NW,305,5.0,7.0,42,-99.99,,,-99.99,0.000000,,2013-09-29 09:11:00,
2013-09-29 03:22:00,51.0,28.0,30.21,West,281,2.0,3.0,39,-99.99,,,-99.99,0.000000,,2013-09-29 09:22:00,
2013-09-29 03:33:00,51.0,28.0,30.21,West,281,2.0,3.0,39,-99.99,,,-99.99,0.000000,,2013-09-29 09:33:00,
2013-09-29 04:43:00,51.0,28.0,30.19,WNW,294,4.0,6.0,41,-99.99,,,-99.99,0.000000,,2013-09-29 10:43:00,
2013-09-29 04:53:00,49.0,29.0,30.19,WNW,293,4.0,5.0,44,-99.99,,,-99.99,0.000000,,2013-09-29 10:53:00,
2013-09-29 05:03:00,49.0,29.0,30.19,WNW,293,4.0,5.0,44,-99.99,,,-99.99,0.000000,,2013-09-29 11:03:00,
2013-09-29 05:42:00,43.0,31.0,30.20,North,7,6.0,8.0,60,-99.99,,,-99.99,0.000000,,2013-09-29 11:42:00,
2013-09-29 06:12:00,43.0,31.0,30.21,NNE,18,6.0,7.0,61,-99.99,,,-99.99,0.000000,,2013-09-29 12:12:00,
2013-09-29 06:42:00,43.0,30.0,30.21,NNE,27,7.0,8.0,60,-99.99,,,-99.99,0.000000,,2013-09-29 12:42:00,
2013-09-29 07:42:00,42.0,32.0,30.21,North,357,6.0,6.0,67,-99.99,,,-99.99,18.129999,,2013-09-29 13:42:00,
2013-09-29 08:12:00,44.0,33.0,30.22,North,1,5.0,6.0,63,-99.99,,,-99.99,115.059998,,2013-09-29 14:12:00,
2013-09-29 08:43:00,50.0,32.0,30.23,NE,34,4.0,7.0,50,-99.99,,,-99.99,211.990005,,2013-09-29 14:43:00,
2013-09-29 08:52:00,53.0,32.0,30.24,NNE,20,5.0,8.0,45,-99.99,,,-99.99,262.890015,,2013-09-29 14:52:00,
2013-09-29 09:02:00,53.0,32.0,30.24,NNE,20,5.0,8.0,45,-99.99,,,-99.99,262.890015,,2013-09-29 15:02:00,
2013-09-29 09:45:00,58.0,31.0,30.25,NNE,15,7.0,10.0,35,-99.99,,,-99.99,410.029999,,2013-09-29 15:45:00,
2013-09-29 10:44:00,64.0,32.0,30.25,North,7,5.0,8.0,30,-99.99,,,-99.99,579.479980,,2013-09-29 16:44:00,
2013-09-29 11:24:00,67.0,33.0,30.24,NNE,26,4.0,8.0,28,-99.99,,,-99.99,679.200012,,2013-09-29 17:24:00,
2013-09-29 11:43:00,68.0,34.0,30.24,NNE,16,3.0,6.0,28,-99.99,,,-99.99,705.700012,,2013-09-29 17:43:00,
2013-09-29 12:42:00,71.0,32.0,30.22,NNE,22,3.0,6.0,23,-99.99,,,-99.99,776.830017,,2013-09-29 18:42:00,
2013-09-29 13:42:00,76.0,33.0,30.19,NW,326,2.0,6.0,21,-99.99,,,-99.99,787.989990,,2013-09-29 19:42:00,
2013-09-29 14:43:00,77.0,33.0,30.15,SW,236,4.0,11.0,19,-99.99,,,-99.99,739.869995,,2013-09-29 20:43:00,
2013-09-29 15:44:00,79.0,32.0,30.12,NNE,16,5.0,11.0,18,-99.99,,,-99.99,635.270020,,2013-09-29 21:44:00,
2013-09-29 16:43:00,81.0,28.0,30.10,NW,325,6.0,11.0,14,-99.99,,,-99.99,485.339996,,2013-09-29 22:43:00,
2013-09-29 16:53:00,81.0,27.0,30.09,WNW,296,8.0,14.0,13,-99.99,,,-99.99,441.410004,,2013-09-29 22:53:00,
2013-09-29 17:03:00,81.0,27.0,30.09,WNW,296,8.0,14.0,13,-99.99,,,-99.99,441.410004,,2013-09-29 23:03:00,
2013-09-29 17:43:00,81.0,29.0,30.08,WNW,292,8.0,14.0,14,-99.99,,,-99.99,292.880005,,2013-09-29 23:43:00,
2013-09-29 17:53:00,81.0,29.0,30.08,NW,309,9.0,14.0,15,-99.99,,,-99.99,248.250000,,2013-09-29 23:53:00,
2013-09-29 18:11:00,80.0,30.0,30.08,NW,316,10.0,15.0,15,-99.99,,,-99.99,198.740005,,2013-09-30 00:11:00,
2013-09-29 21:44:00,65.0,37.0,30.09,NE,36,4.0,5.0,35,-99.99,,,-99.99,0.000000,,2013-09-30 03:44:00,
2013-09-29 23:12:00,60.0,39.0,30.09,South,189,3.0,7.0,45,-99.99,,,-99.99,0.000000,,2013-09-30 05:12:00,
2013-09-29 23:43:00,56.0,37.0,30.08,ESE,105,7.0,10.0,47,-99.99,,,-99.99,0.000000,,2013-09-30 05:43:00,
2013-09-29 23:52:00,57.0,36.0,30.08,ESE,116,10.0,13.0,46,-99.99,,,-99.99,0.000000,,2013-09-30 05:52:00,